Vulcan, Michigan
Current Conditions -  °F | °C
As of 4:54 AM on Friday 19 Dec 2014 (Local Time) from KIMT Reporting Station
Clear Clear  
Wind Chill:   Ceiling: Unl
Heat Index:   Visibility: 10mi
Dew Point: -1°   Wind: 3mph
Humidity: 88%   Direction: 340°NNW
Pressure: 30.25"   Gusts: NA
Location:  45.78°N, 87.86°W
Report Text: KIMT 191054Z AUTO 34003KT 10SM CLR M17/M18 A3025 RMK AO2 SLP270 T11671183
Loading
Personal Weather Stations






























Interactive Weather Map New forecast layout! Learn more

10-Day Weather Forecast

Advertisements
Track Severe Weather on mobile